sensor_id;sensor_type;location;lat;lon;timestamp;P1;durP1;ratioP1;P2;durP2;ratioP2
13222;SDS011;6676;45.192;5.722;2022-08-04T00:01:57;4.05;;;1.60;;
13222;SDS011;6676;45.192;5.722;2022-08-04T00:04:53;3.05;;;1.42;;
13222;SDS011;6676;45.192;5.722;2022-08-04T00:07:47;2.50;;;1.70;;
13222;SDS011;6676;45.192;5.722;2022-08-04T00:10:42;2.00;;;1.80;;
13222;SDS011;6676;45.192;5.722;2022-08-04T00:16:16;1.87;;;1.77;;
13222;SDS011;6676;45.192;5.722;2022-08-04T00:19:11;3.70;;;2.00;;
13222;SDS011;6676;45.192;5.722;2022-08-04T00:22:05;3.77;;;2.10;;
13222;SDS011;6676;45.192;5.722;2022-08-04T00:24:59;2.12;;;1.57;;
13222;SDS011;6676;45.192;5.722;2022-08-04T00:30:31;3.60;;;1.85;;
13222;SDS011;6676;45.192;5.722;2022-08-04T00:33:23;3.37;;;1.70;;
13222;SDS011;6676;45.192;5.722;2022-08-04T00:36:17;2.90;;;1.52;;
13222;SDS011;6676;45.192;5.722;2022-08-04T00:39:10;3.98;;;1.80;;
13222;SDS011;6676;45.192;5.722;2022-08-04T00:42:13;2.17;;;1.72;;
13222;SDS011;6676;45.192;5.722;2022-08-04T00:45:40;3.42;;;1.42;;
13222;SDS011;6676;45.192;5.722;2022-08-04T00:52:13;3.02;;;1.57;;
13222;SDS011;6676;45.192;5.722;2022-08-04T00:55:30;4.85;;;1.55;;
13222;SDS011;6676;45.192;5.722;2022-08-04T00:59:01;3.08;;;1.62;;
13222;SDS011;6676;45.192;5.722;2022-08-04T01:01:59;1.70;;;1.50;;
13222;SDS011;6676;45.192;5.722;2022-08-04T01:05:02;2.83;;;1.70;;
13222;SDS011;6676;45.192;5.722;2022-08-04T01:10:57;4.45;;;1.90;;
13222;SDS011;6676;45.192;5.722;2022-08-04T01:13:42;4.10;;;1.82;;
13222;SDS011;6676;45.192;5.722;2022-08-04T01:16:48;3.55;;;1.52;;
13222;SDS011;6676;45.192;5.722;2022-08-04T01:19:55;6.33;;;1.82;;
13222;SDS011;6676;45.192;5.722;2022-08-04T01:22:56;1.82;;;1.65;;
13222;SDS011;6676;45.192;5.722;2022-08-04T01:29:06;1.65;;;1.47;;
13222;SDS011;6676;45.192;5.722;2022-08-04T01:32:01;4.83;;;1.95;;
13222;SDS011;6676;45.192;5.722;2022-08-04T01:34:55;2.30;;;1.70;;
13222;SDS011;6676;45.192;5.722;2022-08-04T01:37:48;7.22;;;1.67;;
13222;SDS011;6676;45.192;5.722;2022-08-04T01:40:42;3.67;;;1.45;;
13222;SDS011;6676;45.192;5.722;2022-08-04T01:43:37;1.82;;;1.50;;
13222;SDS011;6676;45.192;5.722;2022-08-04T01:46:29;3.65;;;1.60;;
13222;SDS011;6676;45.192;5.722;2022-08-04T01:49:22;2.05;;;1.40;;
13222;SDS011;6676;45.192;5.722;2022-08-04T01:52:17;2.58;;;1.87;;
13222;SDS011;6676;45.192;5.722;2022-08-04T01:55:10;4.72;;;1.95;;
13222;SDS011;6676;45.192;5.722;2022-08-04T02:00:42;3.08;;;2.27;;
13222;SDS011;6676;45.192;5.722;2022-08-04T02:03:44;2.80;;;2.20;;
13222;SDS011;6676;45.192;5.722;2022-08-04T02:06:39;4.40;;;2.20;;
13222;SDS011;6676;45.192;5.722;2022-08-04T02:09:34;3.30;;;2.10;;
13222;SDS011;6676;45.192;5.722;2022-08-04T02:12:34;3.05;;;1.72;;
13222;SDS011;6676;45.192;5.722;2022-08-04T02:15:38;2.12;;;1.92;;
13222;SDS011;6676;45.192;5.722;2022-08-04T02:21:10;5.12;;;1.98;;
13222;SDS011;6676;45.192;5.722;2022-08-04T02:24:13;6.10;;;2.10;;
13222;SDS011;6676;45.192;5.722;2022-08-04T02:27:06;2.20;;;1.47;;
13222;SDS011;6676;45.192;5.722;2022-08-04T02:30:01;2.83;;;2.05;;
13222;SDS011;6676;45.192;5.722;2022-08-04T02:32:53;3.22;;;1.70;;
13222;SDS011;6676;45.192;5.722;2022-08-04T02:35:50;3.30;;;2.10;;
13222;SDS011;6676;45.192;5.722;2022-08-04T02:38:34;2.10;;;1.90;;
13222;SDS011;6676;45.192;5.722;2022-08-04T02:41:17;2.85;;;1.70;;
13222;SDS011;6676;45.192;5.722;2022-08-04T02:44:11;6.22;;;2.37;;
13222;SDS011;6676;45.192;5.722;2022-08-04T02:47:05;3.00;;;2.08;;
13222;SDS011;6676;45.192;5.722;2022-08-04T02:49:57;3.80;;;2.20;;
13222;SDS011;6676;45.192;5.722;2022-08-04T02:52:50;2.70;;;2.00;;
13222;SDS011;6676;45.192;5.722;2022-08-04T02:55:44;4.83;;;2.10;;
13222;SDS011;6676;45.192;5.722;2022-08-04T02:58:38;2.62;;;1.82;;
13222;SDS011;6676;45.192;5.722;2022-08-04T03:01:30;2.45;;;2.20;;
13222;SDS011;6676;45.192;5.722;2022-08-04T03:13:45;4.58;;;2.17;;
13222;SDS011;6676;45.192;5.722;2022-08-04T03:20:45;4.03;;;2.08;;
13222;SDS011;6676;45.192;5.722;2022-08-04T03:27:45;2.58;;;1.92;;
13222;SDS011;6676;45.192;5.722;2022-08-04T03:31:09;3.77;;;1.87;;
13222;SDS011;6676;45.192;5.722;2022-08-04T03:34:07;5.20;;;2.15;;
13222;SDS011;6676;45.192;5.722;2022-08-04T03:37:27;4.47;;;1.90;;
13222;SDS011;6676;45.192;5.722;2022-08-04T03:43:46;3.15;;;1.90;;
13222;SDS011;6676;45.192;5.722;2022-08-04T03:46:57;2.25;;;1.95;;
13222;SDS011;6676;45.192;5.722;2022-08-04T03:53:34;4.03;;;2.10;;
13222;SDS011;6676;45.192;5.722;2022-08-04T03:56:44;4.97;;;2.35;;
13222;SDS011;6676;45.192;5.722;2022-08-04T03:59:56;5.62;;;2.25;;
13222;SDS011;6676;45.192;5.722;2022-08-04T04:09:28;3.17;;;1.92;;
13222;SDS011;6676;45.192;5.722;2022-08-04T04:22:25;2.87;;;2.22;;
13222;SDS011;6676;45.192;5.722;2022-08-04T04:25:29;5.17;;;2.30;;
13222;SDS011;6676;45.192;5.722;2022-08-04T04:28:47;5.60;;;2.15;;
13222;SDS011;6676;45.192;5.722;2022-08-04T04:31:41;3.92;;;2.12;;
13222;SDS011;6676;45.192;5.722;2022-08-04T04:34:44;5.00;;;2.15;;
13222;SDS011;6676;45.192;5.722;2022-08-04T04:37:46;2.50;;;2.10;;
13222;SDS011;6676;45.192;5.722;2022-08-04T04:40:44;3.47;;;2.20;;
13222;SDS011;6676;45.192;5.722;2022-08-04T04:44:04;5.92;;;2.33;;
13222;SDS011;6676;45.192;5.722;2022-08-04T04:47:17;4.72;;;2.05;;
13222;SDS011;6676;45.192;5.722;2022-08-04T04:50:12;4.35;;;2.52;;
13222;SDS011;6676;45.192;5.722;2022-08-04T04:53:08;2.20;;;2.00;;
13222;SDS011;6676;45.192;5.722;2022-08-04T04:56:04;3.92;;;2.10;;
13222;SDS011;6676;45.192;5.722;2022-08-04T04:58:56;3.15;;;2.12;;
13222;SDS011;6676;45.192;5.722;2022-08-04T05:02:05;3.60;;;2.25;;
13222;SDS011;6676;45.192;5.722;2022-08-04T05:05:21;3.58;;;2.17;;
13222;SDS011;6676;45.192;5.722;2022-08-04T05:08:26;4.00;;;1.87;;
13222;SDS011;6676;45.192;5.722;2022-08-04T05:11:36;3.37;;;2.00;;
13222;SDS011;6676;45.192;5.722;2022-08-04T05:14:46;3.87;;;2.70;;
13222;SDS011;6676;45.192;5.722;2022-08-04T05:17:39;3.95;;;2.20;;
13222;SDS011;6676;45.192;5.722;2022-08-04T05:20:33;2.55;;;2.25;;
13222;SDS011;6676;45.192;5.722;2022-08-04T05:23:33;3.83;;;2.00;;
13222;SDS011;6676;45.192;5.722;2022-08-04T05:26:29;3.65;;;2.17;;
13222;SDS011;6676;45.192;5.722;2022-08-04T05:29:25;8.73;;;2.62;;
13222;SDS011;6676;45.192;5.722;2022-08-04T05:32:21;11.95;;;2.67;;
13222;SDS011;6676;45.192;5.722;2022-08-04T05:35:20;5.55;;;2.27;;
13222;SDS011;6676;45.192;5.722;2022-08-04T05:38:17;5.90;;;2.40;;
13222;SDS011;6676;45.192;5.722;2022-08-04T05:41:10;5.72;;;2.27;;
13222;SDS011;6676;45.192;5.722;2022-08-04T05:44:05;6.28;;;2.35;;
13222;SDS011;6676;45.192;5.722;2022-08-04T05:47:00;8.08;;;2.77;;
13222;SDS011;6676;45.192;5.722;2022-08-04T05:49:52;7.95;;;2.55;;
13222;SDS011;6676;45.192;5.722;2022-08-04T05:52:46;13.08;;;2.90;;
13222;SDS011;6676;45.192;5.722;2022-08-04T05:55:41;6.20;;;2.60;;
13222;SDS011;6676;45.192;5.722;2022-08-04T05:58:34;6.17;;;2.20;;
13222;SDS011;6676;45.192;5.722;2022-08-04T06:01:27;4.78;;;2.42;;
13222;SDS011;6676;45.192;5.722;2022-08-04T06:04:21;5.25;;;2.50;;
13222;SDS011;6676;45.192;5.722;2022-08-04T06:07:15;5.53;;;2.33;;
13222;SDS011;6676;45.192;5.722;2022-08-04T06:10:08;8.13;;;2.75;;
13222;SDS011;6676;45.192;5.722;2022-08-04T06:13:00;5.37;;;2.25;;
13222;SDS011;6676;45.192;5.722;2022-08-04T06:15:54;6.42;;;2.40;;
13222;SDS011;6676;45.192;5.722;2022-08-04T06:18:48;5.17;;;2.30;;
13222;SDS011;6676;45.192;5.722;2022-08-04T06:21:46;4.60;;;2.70;;
13222;SDS011;6676;45.192;5.722;2022-08-04T06:24:46;9.05;;;2.98;;
13222;SDS011;6676;45.192;5.722;2022-08-04T06:27:39;8.10;;;2.90;;
13222;SDS011;6676;45.192;5.722;2022-08-04T06:30:32;4.53;;;2.72;;
13222;SDS011;6676;45.192;5.722;2022-08-04T06:36:04;6.10;;;2.35;;
13222;SDS011;6676;45.192;5.722;2022-08-04T06:38:56;5.25;;;2.72;;
13222;SDS011;6676;45.192;5.722;2022-08-04T06:41:49;6.72;;;2.40;;
13222;SDS011;6676;45.192;5.722;2022-08-04T06:44:43;5.05;;;2.40;;
13222;SDS011;6676;45.192;5.722;2022-08-04T06:47:25;6.37;;;2.65;;
13222;SDS011;6676;45.192;5.722;2022-08-04T06:50:22;6.65;;;2.67;;
13222;SDS011;6676;45.192;5.722;2022-08-04T06:53:16;8.33;;;2.70;;
13222;SDS011;6676;45.192;5.722;2022-08-04T06:56:08;12.47;;;2.85;;
13222;SDS011;6676;45.192;5.722;2022-08-04T06:59:02;7.85;;;2.58;;
13222;SDS011;6676;45.192;5.722;2022-08-04T07:01:54;3.65;;;2.40;;
13222;SDS011;6676;45.192;5.722;2022-08-04T07:04:47;9.48;;;3.95;;
13222;SDS011;6676;45.192;5.722;2022-08-04T07:07:39;7.37;;;2.65;;
13222;SDS011;6676;45.192;5.722;2022-08-04T07:10:33;3.65;;;2.20;;
13222;SDS011;6676;45.192;5.722;2022-08-04T07:13:25;3.20;;;2.10;;
13222;SDS011;6676;45.192;5.722;2022-08-04T07:16:19;6.25;;;2.27;;
13222;SDS011;6676;45.192;5.722;2022-08-04T07:19:18;5.97;;;2.20;;
13222;SDS011;6676;45.192;5.722;2022-08-04T07:22:10;5.35;;;2.70;;
13222;SDS011;6676;45.192;5.722;2022-08-04T07:25:07;3.72;;;2.35;;
13222;SDS011;6676;45.192;5.722;2022-08-04T07:28:00;3.62;;;2.33;;
13222;SDS011;6676;45.192;5.722;2022-08-04T07:30:41;3.17;;;2.10;;
13222;SDS011;6676;45.192;5.722;2022-08-04T07:33:34;5.37;;;2.62;;
13222;SDS011;6676;45.192;5.722;2022-08-04T07:36:26;3.87;;;2.20;;
13222;SDS011;6676;45.192;5.722;2022-08-04T07:41:58;4.35;;;2.35;;
13222;SDS011;6676;45.192;5.722;2022-08-04T07:44:51;5.53;;;2.20;;
13222;SDS011;6676;45.192;5.722;2022-08-04T07:47:35;3.92;;;2.30;;
13222;SDS011;6676;45.192;5.722;2022-08-04T07:50:29;3.27;;;2.87;;
13222;SDS011;6676;45.192;5.722;2022-08-04T07:53:22;4.78;;;2.77;;
13222;SDS011;6676;45.192;5.722;2022-08-04T07:56:24;3.02;;;2.50;;
13222;SDS011;6676;45.192;5.722;2022-08-04T07:59:16;4.53;;;2.50;;
13222;SDS011;6676;45.192;5.722;2022-08-04T08:02:08;3.50;;;2.25;;
13222;SDS011;6676;45.192;5.722;2022-08-04T08:05:02;4.33;;;2.33;;
13222;SDS011;6676;45.192;5.722;2022-08-04T08:07:56;2.83;;;2.20;;
13222;SDS011;6676;45.192;5.722;2022-08-04T08:10:47;4.30;;;2.40;;
13222;SDS011;6676;45.192;5.722;2022-08-04T08:13:39;4.42;;;2.30;;
13222;SDS011;6676;45.192;5.722;2022-08-04T08:16:32;4.33;;;2.58;;
13222;SDS011;6676;45.192;5.722;2022-08-04T08:19:27;3.27;;;2.33;;
13222;SDS011;6676;45.192;5.722;2022-08-04T08:22:19;5.00;;;2.83;;
13222;SDS011;6676;45.192;5.722;2022-08-04T08:25:10;3.40;;;2.35;;
13222;SDS011;6676;45.192;5.722;2022-08-04T08:30:41;3.62;;;2.70;;
13222;SDS011;6676;45.192;5.722;2022-08-04T08:33:34;4.08;;;2.20;;
13222;SDS011;6676;45.192;5.722;2022-08-04T08:36:28;5.03;;;2.22;;
13222;SDS011;6676;45.192;5.722;2022-08-04T08:39:21;3.90;;;2.42;;
13222;SDS011;6676;45.192;5.722;2022-08-04T08:42:18;6.53;;;2.60;;
13222;SDS011;6676;45.192;5.722;2022-08-04T08:48:34;5.90;;;2.40;;
13222;SDS011;6676;45.192;5.722;2022-08-04T08:55:02;3.75;;;2.60;;
13222;SDS011;6676;45.192;5.722;2022-08-04T08:57:58;3.87;;;2.60;;
13222;SDS011;6676;45.192;5.722;2022-08-04T09:00:44;3.58;;;2.33;;
13222;SDS011;6676;45.192;5.722;2022-08-04T09:06:42;3.90;;;2.90;;
13222;SDS011;6676;45.192;5.722;2022-08-04T09:12:45;3.75;;;2.70;;
13222;SDS011;6676;45.192;5.722;2022-08-04T09:15:58;5.83;;;2.55;;
13222;SDS011;6676;45.192;5.722;2022-08-04T09:18:53;3.00;;;2.65;;
13222;SDS011;6676;45.192;5.722;2022-08-04T09:21:50;4.05;;;2.55;;
13222;SDS011;6676;45.192;5.722;2022-08-04T09:24:47;4.87;;;2.77;;
13222;SDS011;6676;45.192;5.722;2022-08-04T09:27:46;5.60;;;2.72;;
13222;SDS011;6676;45.192;5.722;2022-08-04T09:30:48;3.65;;;2.80;;
13222;SDS011;6676;45.192;5.722;2022-08-04T09:33:46;3.20;;;2.75;;
13222;SDS011;6676;45.192;5.722;2022-08-04T09:36:40;6.80;;;2.95;;
13222;SDS011;6676;45.192;5.722;2022-08-04T09:39:36;5.80;;;2.77;;
13222;SDS011;6676;45.192;5.722;2022-08-04T09:42:33;4.62;;;2.87;;
13222;SDS011;6676;45.192;5.722;2022-08-04T09:45:32;4.10;;;2.70;;
13222;SDS011;6676;45.192;5.722;2022-08-04T09:48:34;5.35;;;3.02;;
13222;SDS011;6676;45.192;5.722;2022-08-04T09:51:42;7.20;;;3.02;;
13222;SDS011;6676;45.192;5.722;2022-08-04T09:54:41;2.90;;;2.70;;
13222;SDS011;6676;45.192;5.722;2022-08-04T09:57:44;8.73;;;3.40;;
13222;SDS011;6676;45.192;5.722;2022-08-04T10:00:44;4.62;;;3.22;;
13222;SDS011;6676;45.192;5.722;2022-08-04T10:06:55;8.28;;;2.95;;
13222;SDS011;6676;45.192;5.722;2022-08-04T10:09:49;5.95;;;3.25;;
13222;SDS011;6676;45.192;5.722;2022-08-04T10:12:55;5.70;;;3.07;;
13222;SDS011;6676;45.192;5.722;2022-08-04T10:18:56;5.80;;;3.10;;
13222;SDS011;6676;45.192;5.722;2022-08-04T10:22:03;7.97;;;3.50;;
13222;SDS011;6676;45.192;5.722;2022-08-04T10:25:11;6.47;;;3.15;;
13222;SDS011;6676;45.192;5.722;2022-08-04T10:30:49;4.42;;;2.90;;
13222;SDS011;6676;45.192;5.722;2022-08-04T10:33:44;4.62;;;2.90;;
13222;SDS011;6676;45.192;5.722;2022-08-04T10:36:40;6.97;;;2.75;;
13222;SDS011;6676;45.192;5.722;2022-08-04T10:39:39;4.85;;;2.52;;
13222;SDS011;6676;45.192;5.722;2022-08-04T10:42:23;2.77;;;2.52;;
13222;SDS011;6676;45.192;5.722;2022-08-04T10:45:33;2.80;;;2.30;;
13222;SDS011;6676;45.192;5.722;2022-08-04T10:51:10;4.08;;;2.12;;
13222;SDS011;6676;45.192;5.722;2022-08-04T10:54:07;4.95;;;2.12;;
13222;SDS011;6676;45.192;5.722;2022-08-04T10:57:06;4.20;;;2.17;;
13222;SDS011;6676;45.192;5.722;2022-08-04T11:00:00;2.08;;;1.87;;
13222;SDS011;6676;45.192;5.722;2022-08-04T11:02:54;4.72;;;1.70;;
13222;SDS011;6676;45.192;5.722;2022-08-04T11:08:30;2.58;;;1.77;;
13222;SDS011;6676;45.192;5.722;2022-08-04T11:11:29;7.55;;;2.30;;
13222;SDS011;6676;45.192;5.722;2022-08-04T11:14:26;6.45;;;2.33;;
13222;SDS011;6676;45.192;5.722;2022-08-04T11:17:35;6.33;;;2.58;;
13222;SDS011;6676;45.192;5.722;2022-08-04T11:20:35;7.42;;;2.58;;
13222;SDS011;6676;45.192;5.722;2022-08-04T11:23:50;8.48;;;2.50;;
13222;SDS011;6676;45.192;5.722;2022-08-04T11:30:15;3.90;;;1.85;;
13222;SDS011;6676;45.192;5.722;2022-08-04T11:36:02;2.65;;;2.10;;
13222;SDS011;6676;45.192;5.722;2022-08-04T11:41:45;4.65;;;2.15;;
13222;SDS011;6676;45.192;5.722;2022-08-04T11:44:49;5.78;;;2.15;;
13222;SDS011;6676;45.192;5.722;2022-08-04T11:47:45;4.53;;;2.02;;
13222;SDS011;6676;45.192;5.722;2022-08-04T11:50:38;2.22;;;2.05;;
13222;SDS011;6676;45.192;5.722;2022-08-04T11:53:33;3.40;;;2.00;;
13222;SDS011;6676;45.192;5.722;2022-08-04T11:56:18;4.10;;;2.20;;
13222;SDS011;6676;45.192;5.722;2022-08-04T12:02:17;2.87;;;2.00;;
13222;SDS011;6676;45.192;5.722;2022-08-04T12:05:32;3.05;;;2.00;;
13222;SDS011;6676;45.192;5.722;2022-08-04T12:08:28;4.35;;;2.40;;
13222;SDS011;6676;45.192;5.722;2022-08-04T12:11:45;2.72;;;2.00;;
13222;SDS011;6676;45.192;5.722;2022-08-04T12:15:13;3.27;;;2.30;;
13222;SDS011;6676;45.192;5.722;2022-08-04T12:18:20;3.80;;;2.33;;
13222;SDS011;6676;45.192;5.722;2022-08-04T12:21:24;6.45;;;2.30;;
13222;SDS011;6676;45.192;5.722;2022-08-04T12:24:32;3.37;;;1.80;;
13222;SDS011;6676;45.192;5.722;2022-08-04T12:27:28;4.78;;;1.70;;
13222;SDS011;6676;45.192;5.722;2022-08-04T12:30:21;7.70;;;1.98;;
13222;SDS011;6676;45.192;5.722;2022-08-04T12:35:56;2.67;;;1.90;;
13222;SDS011;6676;45.192;5.722;2022-08-04T12:41:33;2.45;;;2.05;;
13222;SDS011;6676;45.192;5.722;2022-08-04T12:44:41;3.40;;;2.02;;
13222;SDS011;6676;45.192;5.722;2022-08-04T12:47:35;3.05;;;2.05;;
13222;SDS011;6676;45.192;5.722;2022-08-04T12:50:29;4.67;;;2.67;;
13222;SDS011;6676;45.192;5.722;2022-08-04T12:56:01;1.90;;;1.80;;
13222;SDS011;6676;45.192;5.722;2022-08-04T13:01:39;2.83;;;1.77;;
13222;SDS011;6676;45.192;5.722;2022-08-04T13:04:57;2.65;;;1.70;;
13222;SDS011;6676;45.192;5.722;2022-08-04T13:07:49;3.22;;;1.70;;
13222;SDS011;6676;45.192;5.722;2022-08-04T13:10:46;2.42;;;1.92;;
13222;SDS011;6676;45.192;5.722;2022-08-04T13:13:43;5.30;;;1.98;;
13222;SDS011;6676;45.192;5.722;2022-08-04T13:16:44;3.05;;;1.87;;
13222;SDS011;6676;45.192;5.722;2022-08-04T13:19:45;2.37;;;1.80;;
13222;SDS011;6676;45.192;5.722;2022-08-04T13:22:51;3.05;;;1.90;;
13222;SDS011;6676;45.192;5.722;2022-08-04T13:25:49;4.03;;;1.70;;
13222;SDS011;6676;45.192;5.722;2022-08-04T13:28:45;3.90;;;1.90;;
13222;SDS011;6676;45.192;5.722;2022-08-04T13:31:38;4.87;;;1.77;;
13222;SDS011;6676;45.192;5.722;2022-08-04T13:37:11;5.95;;;2.00;;
13222;SDS011;6676;45.192;5.722;2022-08-04T13:40:08;2.50;;;1.82;;
13222;SDS011;6676;45.192;5.722;2022-08-04T13:43:01;2.33;;;1.90;;
13222;SDS011;6676;45.192;5.722;2022-08-04T13:45:42;4.65;;;1.70;;
13222;SDS011;6676;45.192;5.722;2022-08-04T13:48:36;2.92;;;1.77;;
13222;SDS011;6676;45.192;5.722;2022-08-04T13:51:29;5.10;;;1.77;;
13222;SDS011;6676;45.192;5.722;2022-08-04T13:54:22;2.52;;;1.52;;
13222;SDS011;6676;45.192;5.722;2022-08-04T13:57:35;2.15;;;1.70;;
13222;SDS011;6676;45.192;5.722;2022-08-04T14:00:40;3.92;;;2.10;;
13222;SDS011;6676;45.192;5.722;2022-08-04T14:06:31;3.65;;;2.00;;
13222;SDS011;6676;45.192;5.722;2022-08-04T14:09:23;2.00;;;1.90;;
13222;SDS011;6676;45.192;5.722;2022-08-04T14:12:17;2.47;;;2.17;;
13222;SDS011;6676;45.192;5.722;2022-08-04T14:15:12;2.35;;;2.15;;
13222;SDS011;6676;45.192;5.722;2022-08-04T14:18:23;3.22;;;2.45;;
13222;SDS011;6676;45.192;5.722;2022-08-04T14:21:17;3.00;;;2.70;;
13222;SDS011;6676;45.192;5.722;2022-08-04T14:24:08;2.72;;;2.52;;
13222;SDS011;6676;45.192;5.722;2022-08-04T14:26:59;4.92;;;2.77;;
13222;SDS011;6676;45.192;5.722;2022-08-04T14:29:51;4.67;;;3.00;;
13222;SDS011;6676;45.192;5.722;2022-08-04T14:32:53;4.33;;;2.65;;
13222;SDS011;6676;45.192;5.722;2022-08-04T14:35:54;5.37;;;2.67;;
13222;SDS011;6676;45.192;5.722;2022-08-04T14:38:49;3.83;;;2.60;;
13222;SDS011;6676;45.192;5.722;2022-08-04T14:41:44;2.50;;;2.30;;
13222;SDS011;6676;45.192;5.722;2022-08-04T14:44:53;5.33;;;2.52;;
13222;SDS011;6676;45.192;5.722;2022-08-04T14:47:46;2.83;;;2.40;;
13222;SDS011;6676;45.192;5.722;2022-08-04T14:50:50;3.85;;;3.55;;
13222;SDS011;6676;45.192;5.722;2022-08-04T14:56:21;2.95;;;2.65;;
13222;SDS011;6676;45.192;5.722;2022-08-04T14:59:14;3.10;;;2.80;;
13222;SDS011;6676;45.192;5.722;2022-08-04T15:02:05;3.25;;;2.40;;
13222;SDS011;6676;45.192;5.722;2022-08-04T15:04:58;6.35;;;2.60;;
13222;SDS011;6676;45.192;5.722;2022-08-04T15:07:52;2.50;;;2.05;;
13222;SDS011;6676;45.192;5.722;2022-08-04T15:10:45;4.53;;;2.85;;
13222;SDS011;6676;45.192;5.722;2022-08-04T15:13:36;2.80;;;2.40;;
13222;SDS011;6676;45.192;5.722;2022-08-04T15:16:28;5.35;;;2.50;;
13222;SDS011;6676;45.192;5.722;2022-08-04T15:19:20;4.37;;;2.58;;
13222;SDS011;6676;45.192;5.722;2022-08-04T15:22:12;3.42;;;2.70;;
13222;SDS011;6676;45.192;5.722;2022-08-04T15:25:06;2.42;;;2.22;;
13222;SDS011;6676;45.192;5.722;2022-08-04T15:28:00;3.95;;;2.30;;
13222;SDS011;6676;45.192;5.722;2022-08-04T15:30:55;4.05;;;2.17;;
13222;SDS011;6676;45.192;5.722;2022-08-04T15:33:47;3.72;;;2.20;;
13222;SDS011;6676;45.192;5.722;2022-08-04T15:36:46;3.05;;;2.00;;
13222;SDS011;6676;45.192;5.722;2022-08-04T15:39:43;2.52;;;2.15;;
13222;SDS011;6676;45.192;5.722;2022-08-04T15:42:42;5.10;;;2.42;;
13222;SDS011;6676;45.192;5.722;2022-08-04T15:45:24;2.87;;;2.47;;
13222;SDS011;6676;45.192;5.722;2022-08-04T15:48:23;2.30;;;2.10;;
13222;SDS011;6676;45.192;5.722;2022-08-04T15:51:15;2.10;;;2.00;;
13222;SDS011;6676;45.192;5.722;2022-08-04T15:54:22;3.47;;;1.90;;
13222;SDS011;6676;45.192;5.722;2022-08-04T15:57:15;2.15;;;1.95;;
13222;SDS011;6676;45.192;5.722;2022-08-04T16:00:10;2.50;;;1.98;;
13222;SDS011;6676;45.192;5.722;2022-08-04T16:03:02;2.22;;;2.02;;
13222;SDS011;6676;45.192;5.722;2022-08-04T16:05:58;3.30;;;2.00;;
13222;SDS011;6676;45.192;5.722;2022-08-04T16:09:00;2.42;;;2.20;;
13222;SDS011;6676;45.192;5.722;2022-08-04T16:11:53;3.15;;;2.02;;
13222;SDS011;6676;45.192;5.722;2022-08-04T16:14:45;3.12;;;2.50;;
13222;SDS011;6676;45.192;5.722;2022-08-04T16:17:39;3.20;;;2.15;;
13222;SDS011;6676;45.192;5.722;2022-08-04T16:20:39;3.90;;;2.12;;
13222;SDS011;6676;45.192;5.722;2022-08-04T16:24:05;2.70;;;2.20;;
13222;SDS011;6676;45.192;5.722;2022-08-04T16:27:00;3.33;;;2.47;;
13222;SDS011;6676;45.192;5.722;2022-08-04T16:32:39;4.80;;;2.62;;
13222;SDS011;6676;45.192;5.722;2022-08-04T16:35:31;2.90;;;2.70;;
13222;SDS011;6676;45.192;5.722;2022-08-04T16:41:09;2.52;;;2.33;;
13222;SDS011;6676;45.192;5.722;2022-08-04T16:47:42;2.60;;;2.30;;
13222;SDS011;6676;45.192;5.722;2022-08-04T16:50:44;2.55;;;2.35;;
13222;SDS011;6676;45.192;5.722;2022-08-04T16:56:16;2.85;;;2.15;;
13222;SDS011;6676;45.192;5.722;2022-08-04T16:59:10;2.50;;;2.30;;
13222;SDS011;6676;45.192;5.722;2022-08-04T17:02:03;2.80;;;2.20;;
13222;SDS011;6676;45.192;5.722;2022-08-04T17:04:57;2.60;;;2.40;;
13222;SDS011;6676;45.192;5.722;2022-08-04T17:07:49;3.25;;;2.30;;
13222;SDS011;6676;45.192;5.722;2022-08-04T17:10:45;2.73;;;2.53;;
13222;SDS011;6676;45.192;5.722;2022-08-04T17:13:38;2.60;;;2.40;;
13222;SDS011;6676;45.192;5.722;2022-08-04T17:16:35;3.55;;;2.60;;
13222;SDS011;6676;45.192;5.722;2022-08-04T17:19:29;3.30;;;2.40;;
13222;SDS011;6676;45.192;5.722;2022-08-04T17:22:22;2.33;;;2.12;;
13222;SDS011;6676;45.192;5.722;2022-08-04T17:25:13;3.92;;;2.55;;
13222;SDS011;6676;45.192;5.722;2022-08-04T17:28:05;2.50;;;2.05;;
13222;SDS011;6676;45.192;5.722;2022-08-04T17:31:00;3.02;;;2.40;;
13222;SDS011;6676;45.192;5.722;2022-08-04T17:33:55;3.70;;;2.27;;
13222;SDS011;6676;45.192;5.722;2022-08-04T17:36:47;2.50;;;2.30;;
13222;SDS011;6676;45.192;5.722;2022-08-04T17:39:39;2.60;;;2.12;;
13222;SDS011;6676;45.192;5.722;2022-08-04T17:42:32;3.52;;;2.17;;
13222;SDS011;6676;45.192;5.722;2022-08-04T17:45:30;2.30;;;2.10;;
13222;SDS011;6676;45.192;5.722;2022-08-04T17:48:26;2.55;;;2.35;;
13222;SDS011;6676;45.192;5.722;2022-08-04T17:51:18;2.05;;;1.95;;
13222;SDS011;6676;45.192;5.722;2022-08-04T17:54:11;3.25;;;2.55;;
13222;SDS011;6676;45.192;5.722;2022-08-04T17:57:12;3.12;;;2.20;;
13222;SDS011;6676;45.192;5.722;2022-08-04T18:00:10;2.33;;;2.10;;
13222;SDS011;6676;45.192;5.722;2022-08-04T18:03:21;4.37;;;2.27;;
13222;SDS011;6676;45.192;5.722;2022-08-04T18:06:15;2.70;;;2.30;;
13222;SDS011;6676;45.192;5.722;2022-08-04T18:09:06;2.33;;;2.10;;
13222;SDS011;6676;45.192;5.722;2022-08-04T18:12:00;2.42;;;2.20;;
13222;SDS011;6676;45.192;5.722;2022-08-04T18:14:54;3.22;;;2.15;;
13222;SDS011;6676;45.192;5.722;2022-08-04T18:17:47;3.75;;;2.37;;
13222;SDS011;6676;45.192;5.722;2022-08-04T18:20:40;2.40;;;2.20;;
13222;SDS011;6676;45.192;5.722;2022-08-04T18:23:33;2.30;;;2.10;;
13222;SDS011;6676;45.192;5.722;2022-08-04T18:26:26;3.22;;;2.12;;
13222;SDS011;6676;45.192;5.722;2022-08-04T18:29:18;2.62;;;2.42;;
13222;SDS011;6676;45.192;5.722;2022-08-04T18:32:11;5.12;;;2.47;;
13222;SDS011;6676;45.192;5.722;2022-08-04T18:35:05;4.12;;;2.40;;
13222;SDS011;6676;45.192;5.722;2022-08-04T18:37:58;4.37;;;2.25;;
13222;SDS011;6676;45.192;5.722;2022-08-04T18:40:52;4.55;;;2.30;;
13222;SDS011;6676;45.192;5.722;2022-08-04T18:43:52;4.05;;;2.50;;
13222;SDS011;6676;45.192;5.722;2022-08-04T18:46:44;2.40;;;2.20;;
13222;SDS011;6676;45.192;5.722;2022-08-04T18:49:37;3.15;;;2.50;;
13222;SDS011;6676;45.192;5.722;2022-08-04T18:52:30;3.90;;;2.30;;
13222;SDS011;6676;45.192;5.722;2022-08-04T18:55:21;3.35;;;2.90;;
13222;SDS011;6676;45.192;5.722;2022-08-04T18:58:15;3.00;;;2.70;;
13222;SDS011;6676;45.192;5.722;2022-08-04T19:01:08;3.77;;;3.30;;
13222;SDS011;6676;45.192;5.722;2022-08-04T19:04:02;2.70;;;2.50;;
13222;SDS011;6676;45.192;5.722;2022-08-04T19:06:58;4.15;;;2.75;;
13222;SDS011;6676;45.192;5.722;2022-08-04T19:09:50;2.42;;;2.22;;
13222;SDS011;6676;45.192;5.722;2022-08-04T19:12:44;3.72;;;2.40;;
13222;SDS011;6676;45.192;5.722;2022-08-04T19:15:37;2.65;;;2.45;;
13222;SDS011;6676;45.192;5.722;2022-08-04T19:18:31;3.60;;;2.90;;
13222;SDS011;6676;45.192;5.722;2022-08-04T19:21:24;3.30;;;3.00;;
13222;SDS011;6676;45.192;5.722;2022-08-04T19:24:17;5.62;;;3.10;;
13222;SDS011;6676;45.192;5.722;2022-08-04T19:27:09;4.37;;;3.98;;
13222;SDS011;6676;45.192;5.722;2022-08-04T19:30:02;3.62;;;3.33;;
13222;SDS011;6676;45.192;5.722;2022-08-04T19:32:56;2.85;;;2.65;;
13222;SDS011;6676;45.192;5.722;2022-08-04T19:35:48;3.80;;;2.83;;
13222;SDS011;6676;45.192;5.722;2022-08-04T19:38:39;3.77;;;3.42;;
13222;SDS011;6676;45.192;5.722;2022-08-04T19:41:31;5.05;;;3.95;;
13222;SDS011;6676;45.192;5.722;2022-08-04T19:44:25;4.17;;;3.02;;
13222;SDS011;6676;45.192;5.722;2022-08-04T19:47:17;5.22;;;2.98;;
13222;SDS011;6676;45.192;5.722;2022-08-04T19:50:10;2.95;;;2.27;;
13222;SDS011;6676;45.192;5.722;2022-08-04T19:53:02;4.30;;;3.55;;
13222;SDS011;6676;45.192;5.722;2022-08-04T19:55:55;3.45;;;3.15;;
13222;SDS011;6676;45.192;5.722;2022-08-04T19:58:47;3.85;;;2.83;;
13222;SDS011;6676;45.192;5.722;2022-08-04T20:01:39;5.20;;;4.70;;
13222;SDS011;6676;45.192;5.722;2022-08-04T20:04:32;3.92;;;3.60;;
13222;SDS011;6676;45.192;5.722;2022-08-04T20:07:26;3.42;;;3.12;;
13222;SDS011;6676;45.192;5.722;2022-08-04T20:10:18;4.40;;;3.20;;
13222;SDS011;6676;45.192;5.722;2022-08-04T20:13:11;3.05;;;2.80;;
13222;SDS011;6676;45.192;5.722;2022-08-04T20:16:04;3.67;;;2.98;;
13222;SDS011;6676;45.192;5.722;2022-08-04T20:18:57;2.70;;;2.50;;